sensor_id;sensor_type;location;lat;lon;timestamp;pressure;altitude;pressure_sealevel;temperature;humidity
75855;BME280;64502;59.976;30.316;2022-12-24T00:00:58;99254.31;;;2.76;84.92
75855;BME280;64502;59.976;30.316;2022-12-24T00:03:24;99248.16;;;2.77;84.99
75855;BME280;64502;59.976;30.316;2022-12-24T00:05:49;99244.63;;;2.78;84.55
75855;BME280;64502;59.976;30.316;2022-12-24T00:08:15;99249.63;;;2.82;83.73
75855;BME280;64502;59.976;30.316;2022-12-24T00:10:40;99247.84;;;2.83;83.39
75855;BME280;64502;59.976;30.316;2022-12-24T00:13:06;99252.91;;;2.86;82.79
75855;BME280;64502;59.976;30.316;2022-12-24T00:15:31;99249.41;;;2.87;83.16
75855;BME280;64502;59.976;30.316;2022-12-24T00:17:57;99258.81;;;2.89;83.32
75855;BME280;64502;59.976;30.316;2022-12-24T00:20:22;99263.94;;;2.91;82.19
75855;BME280;64502;59.976;30.316;2022-12-24T00:22:49;99263.03;;;2.92;82.66
75855;BME280;64502;59.976;30.316;2022-12-24T00:25:14;99257.75;;;2.94;82.16
75855;BME280;64502;59.976;30.316;2022-12-24T00:27:40;99263.78;;;2.94;82.05
75855;BME280;64502;59.976;30.316;2022-12-24T00:30:06;99269.16;;;2.91;83.01
75855;BME280;64502;59.976;30.316;2022-12-24T00:32:31;99269.94;;;2.93;83.37
75855;BME280;64502;59.976;30.316;2022-12-24T00:34:56;99273.59;;;2.89;83.07
75855;BME280;64502;59.976;30.316;2022-12-24T00:37:22;99279.94;;;2.83;82.73
75855;BME280;64502;59.976;30.316;2022-12-24T00:39:47;99277.50;;;2.80;83.64
75855;BME280;64502;59.976;30.316;2022-12-24T00:42:13;99280.47;;;2.73;82.55
75855;BME280;64502;59.976;30.316;2022-12-24T00:44:38;99273.69;;;2.70;83.21
75855;BME280;64502;59.976;30.316;2022-12-24T00:47:03;99275.66;;;2.65;83.38
75855;BME280;64502;59.976;30.316;2022-12-24T00:49:29;99273.13;;;2.63;83.81
75855;BME280;64502;59.976;30.316;2022-12-24T00:51:54;99274.06;;;2.62;83.22
75855;BME280;64502;59.976;30.316;2022-12-24T00:54:20;99275.81;;;2.62;83.82
75855;BME280;64502;59.976;30.316;2022-12-24T00:56:45;99273.34;;;2.59;83.26
75855;BME280;64502;59.976;30.316;2022-12-24T00:59:10;99284.69;;;2.58;82.56
75855;BME280;64502;59.976;30.316;2022-12-24T01:01:36;99282.13;;;2.56;83.65
75855;BME280;64502;59.976;30.316;2022-12-24T01:04:02;99287.50;;;2.53;83.11
75855;BME280;64502;59.976;30.316;2022-12-24T01:06:46;99283.44;;;2.48;83.38
75855;BME280;64502;59.976;30.316;2022-12-24T01:09:11;99287.03;;;2.45;83.62
75855;BME280;64502;59.976;30.316;2022-12-24T01:11:37;99303.88;;;2.38;83.46
75855;BME280;64502;59.976;30.316;2022-12-24T01:14:02;99301.47;;;2.33;83.88
75855;BME280;64502;59.976;30.316;2022-12-24T01:16:28;99307.19;;;2.22;84.05
75855;BME280;64502;59.976;30.316;2022-12-24T01:18:53;99308.47;;;2.14;84.76
75855;BME280;64502;59.976;30.316;2022-12-24T01:21:18;99301.94;;;2.05;84.70
75855;BME280;64502;59.976;30.316;2022-12-24T01:23:44;99305.56;;;2.01;84.77
75855;BME280;64502;59.976;30.316;2022-12-24T01:26:10;99298.84;;;1.97;85.28
75855;BME280;64502;59.976;30.316;2022-12-24T01:28:39;99305.66;;;1.99;85.81
75855;BME280;64502;59.976;30.316;2022-12-24T01:31:10;99310.00;;;1.99;85.90
75855;BME280;64502;59.976;30.316;2022-12-24T01:33:35;99315.13;;;2.00;85.50
75855;BME280;64502;59.976;30.316;2022-12-24T01:36:02;99319.41;;;2.02;85.49
75855;BME280;64502;59.976;30.316;2022-12-24T01:38:27;99319.41;;;2.02;85.50
75855;BME280;64502;59.976;30.316;2022-12-24T01:40:53;99320.97;;;2.06;85.34
75855;BME280;64502;59.976;30.316;2022-12-24T01:43:37;99317.38;;;2.08;86.12
75855;BME280;64502;59.976;30.316;2022-12-24T01:46:03;99324.22;;;2.11;85.50
75855;BME280;64502;59.976;30.316;2022-12-24T01:48:47;99330.25;;;2.11;85.40
75855;BME280;64502;59.976;30.316;2022-12-24T01:51:33;99332.72;;;2.14;84.42
75855;BME280;64502;59.976;30.316;2022-12-24T01:54:12;99332.06;;;2.09;85.42
75855;BME280;64502;59.976;30.316;2022-12-24T01:56:44;99339.09;;;2.07;84.87
75855;BME280;64502;59.976;30.316;2022-12-24T01:59:13;99334.69;;;2.09;84.48
75855;BME280;64502;59.976;30.316;2022-12-24T02:01:39;99347.00;;;2.06;83.95
75855;BME280;64502;59.976;30.316;2022-12-24T02:04:16;99341.66;;;2.09;85.01
75855;BME280;64502;59.976;30.316;2022-12-24T02:06:45;99334.81;;;2.06;84.92
75855;BME280;64502;59.976;30.316;2022-12-24T02:09:11;99342.63;;;2.06;84.10
75855;BME280;64502;59.976;30.316;2022-12-24T02:11:38;99351.56;;;2.00;84.00
75855;BME280;64502;59.976;30.316;2022-12-24T02:14:06;99343.81;;;1.99;83.86
75855;BME280;64502;59.976;30.316;2022-12-24T02:16:37;99342.91;;;2.00;84.65
75855;BME280;64502;59.976;30.316;2022-12-24T02:19:34;99349.78;;;2.01;84.25
75855;BME280;64502;59.976;30.316;2022-12-24T02:27:15;99368.16;;;1.59;84.48
75855;BME280;64502;59.976;30.316;2022-12-24T02:32:27;99383.69;;;1.40;85.96
75855;BME280;64502;59.976;30.316;2022-12-24T02:35:04;99389.00;;;1.37;85.67
75855;BME280;64502;59.976;30.316;2022-12-24T02:37:39;99406.31;;;1.36;86.33
75855;BME280;64502;59.976;30.316;2022-12-24T02:40:10;99402.88;;;1.36;85.46
75855;BME280;64502;59.976;30.316;2022-12-24T02:42:41;99404.47;;;1.40;85.88
75855;BME280;64502;59.976;30.316;2022-12-24T02:45:13;99422.41;;;1.46;85.05
75855;BME280;64502;59.976;30.316;2022-12-24T02:47:41;99431.81;;;1.48;83.12
75855;BME280;64502;59.976;30.316;2022-12-24T02:50:10;99447.34;;;1.50;83.92
75855;BME280;64502;59.976;30.316;2022-12-24T03:03:40;99512.44;;;1.47;82.65
75855;BME280;64502;59.976;30.316;2022-12-24T03:08:59;99524.00;;;1.40;83.11
75855;BME280;64502;59.976;30.316;2022-12-24T03:11:26;99531.03;;;1.38;83.61
75855;BME280;64502;59.976;30.316;2022-12-24T03:13:53;99544.84;;;1.38;84.08
75855;BME280;64502;59.976;30.316;2022-12-24T03:16:24;99546.78;;;1.33;83.43
75855;BME280;64502;59.976;30.316;2022-12-24T03:18:52;99551.97;;;1.33;83.95
75855;BME280;64502;59.976;30.316;2022-12-24T03:23:49;99573.69;;;1.32;83.38
75855;BME280;64502;59.976;30.316;2022-12-24T03:26:16;99581.72;;;1.26;82.47
75855;BME280;64502;59.976;30.316;2022-12-24T03:28:45;99581.91;;;1.21;82.45
75855;BME280;64502;59.976;30.316;2022-12-24T03:31:11;99596.81;;;1.16;81.77
75855;BME280;64502;59.976;30.316;2022-12-24T03:33:38;99592.66;;;1.12;81.55
75855;BME280;64502;59.976;30.316;2022-12-24T03:36:05;99605.84;;;1.06;81.63
75855;BME280;64502;59.976;30.316;2022-12-24T03:38:31;99615.66;;;0.98;81.24
75855;BME280;64502;59.976;30.316;2022-12-24T03:40:56;99613.19;;;0.95;81.12
75855;BME280;64502;59.976;30.316;2022-12-24T03:43:22;99624.59;;;0.91;80.90
75855;BME280;64502;59.976;30.316;2022-12-24T03:45:47;99635.88;;;0.89;81.21
75855;BME280;64502;59.976;30.316;2022-12-24T03:48:13;99636.78;;;0.88;80.62
75855;BME280;64502;59.976;30.316;2022-12-24T03:50:38;99648.16;;;0.84;79.79
75855;BME280;64502;59.976;30.316;2022-12-24T03:53:04;99654.44;;;0.79;80.36
75855;BME280;64502;59.976;30.316;2022-12-24T03:55:29;99659.03;;;0.71;80.11
75855;BME280;64502;59.976;30.316;2022-12-24T03:57:55;99658.53;;;0.61;80.77
75855;BME280;64502;59.976;30.316;2022-12-24T04:00:20;99680.09;;;0.63;81.59
75855;BME280;64502;59.976;30.316;2022-12-24T04:02:45;99680.25;;;0.58;80.78
75855;BME280;64502;59.976;30.316;2022-12-24T04:05:16;99687.19;;;0.58;81.49
75855;BME280;64502;59.976;30.316;2022-12-24T04:07:43;99687.28;;;0.55;81.28
75855;BME280;64502;59.976;30.316;2022-12-24T04:10:09;99692.56;;;0.52;81.32
75855;BME280;64502;59.976;30.316;2022-12-24T04:12:36;99698.81;;;0.46;81.00
75855;BME280;64502;59.976;30.316;2022-12-24T04:15:02;99704.09;;;0.43;81.03
75855;BME280;64502;59.976;30.316;2022-12-24T04:17:27;99706.78;;;0.41;80.86
75855;BME280;64502;59.976;30.316;2022-12-24T04:19:53;99712.00;;;0.40;80.79
75855;BME280;64502;59.976;30.316;2022-12-24T04:22:18;99713.75;;;0.39;80.85
75855;BME280;64502;59.976;30.316;2022-12-24T04:24:44;99713.78;;;0.38;81.25
75855;BME280;64502;59.976;30.316;2022-12-24T04:27:09;99723.50;;;0.33;80.37
75855;BME280;64502;59.976;30.316;2022-12-24T04:29:34;99732.16;;;0.32;80.08
75855;BME280;64502;59.976;30.316;2022-12-24T04:32:00;99741.09;;;0.23;80.20
75855;BME280;64502;59.976;30.316;2022-12-24T04:34:26;99746.47;;;0.17;79.75
75855;BME280;64502;59.976;30.316;2022-12-24T04:36:51;99762.28;;;0.08;80.54
75855;BME280;64502;59.976;30.316;2022-12-24T04:39:17;99740.91;;;0.01;80.48
75855;BME280;64502;59.976;30.316;2022-12-24T04:41:42;99754.94;;;-0.06;80.48
75855;BME280;64502;59.976;30.316;2022-12-24T04:44:08;99746.63;;;-0.17;80.41
75855;BME280;64502;59.976;30.316;2022-12-24T04:46:34;99759.81;;;-0.25;80.88
75855;BME280;64502;59.976;30.316;2022-12-24T04:48:59;99770.47;;;-0.34;80.84
75855;BME280;64502;59.976;30.316;2022-12-24T04:51:26;99785.28;;;-0.39;80.30
75855;BME280;64502;59.976;30.316;2022-12-24T04:53:52;99783.81;;;-0.48;79.92
75855;BME280;64502;59.976;30.316;2022-12-24T04:56:20;99783.09;;;-0.53;80.14
75855;BME280;64502;59.976;30.316;2022-12-24T04:58:47;99797.09;;;-0.60;81.05
75855;BME280;64502;59.976;30.316;2022-12-24T05:01:15;99792.06;;;-0.65;81.04
75855;BME280;64502;59.976;30.316;2022-12-24T05:03:41;99800.78;;;-0.69;80.86
75855;BME280;64502;59.976;30.316;2022-12-24T05:06:09;99802.66;;;-0.74;80.19
75855;BME280;64502;59.976;30.316;2022-12-24T05:08:36;99810.50;;;-0.77;80.00
75855;BME280;64502;59.976;30.316;2022-12-24T05:11:03;99808.09;;;-0.83;80.97
75855;BME280;64502;59.976;30.316;2022-12-24T05:13:29;99814.19;;;-0.86;80.88
75855;BME280;64502;59.976;30.316;2022-12-24T05:15:55;99824.56;;;-0.87;80.51
75855;BME280;64502;59.976;30.316;2022-12-24T05:18:21;99822.13;;;-0.92;80.67
75855;BME280;64502;59.976;30.316;2022-12-24T05:20:47;99846.44;;;-0.98;81.26
75855;BME280;64502;59.976;30.316;2022-12-24T05:23:15;99856.88;;;-1.01;79.96
75855;BME280;64502;59.976;30.316;2022-12-24T05:25:59;99860.47;;;-1.06;80.06
75855;BME280;64502;59.976;30.316;2022-12-24T05:28:43;99866.50;;;-1.07;80.62
75855;BME280;64502;59.976;30.316;2022-12-24T05:31:09;99864.91;;;-1.12;79.60
75855;BME280;64502;59.976;30.316;2022-12-24T05:33:34;99867.56;;;-1.15;80.85
75855;BME280;64502;59.976;30.316;2022-12-24T05:35:59;99876.25;;;-1.17;81.19
75855;BME280;64502;59.976;30.316;2022-12-24T05:38:25;99869.44;;;-1.21;80.54
75855;BME280;64502;59.976;30.316;2022-12-24T05:40:50;99882.38;;;-1.21;81.03
75855;BME280;64502;59.976;30.316;2022-12-24T05:43:16;99888.53;;;-1.27;81.14
75855;BME280;64502;59.976;30.316;2022-12-24T05:45:41;99886.94;;;-1.31;80.82
75855;BME280;64502;59.976;30.316;2022-12-24T05:48:06;99895.56;;;-1.32;81.30
75855;BME280;64502;59.976;30.316;2022-12-24T05:50:33;99899.03;;;-1.33;81.52
75855;BME280;64502;59.976;30.316;2022-12-24T05:52:58;99900.81;;;-1.35;81.47
75855;BME280;64502;59.976;30.316;2022-12-24T05:55:24;99904.28;;;-1.36;81.42
75855;BME280;64502;59.976;30.316;2022-12-24T05:57:50;99913.81;;;-1.38;81.76
75855;BME280;64502;59.976;30.316;2022-12-24T06:00:16;99917.31;;;-1.39;80.94
75855;BME280;64502;59.976;30.316;2022-12-24T06:02:41;99926.81;;;-1.41;81.01
75855;BME280;64502;59.976;30.316;2022-12-24T06:05:07;99922.56;;;-1.44;80.71
75855;BME280;64502;59.976;30.316;2022-12-24T06:07:33;99924.31;;;-1.46;80.66
75855;BME280;64502;59.976;30.316;2022-12-24T06:09:59;99929.50;;;-1.46;80.94
75855;BME280;64502;59.976;30.316;2022-12-24T06:12:24;99943.34;;;-1.47;81.00
75855;BME280;64502;59.976;30.316;2022-12-24T06:14:50;99952.00;;;-1.49;80.19
75855;BME280;64502;59.976;30.316;2022-12-24T06:17:15;99952.88;;;-1.50;80.80
75855;BME280;64502;59.976;30.316;2022-12-24T06:19:41;99952.00;;;-1.49;81.07
75855;BME280;64502;59.976;30.316;2022-12-24T06:22:06;99955.44;;;-1.49;81.59
75855;BME280;64502;59.976;30.316;2022-12-24T06:24:32;99967.47;;;-1.48;81.45
75855;BME280;64502;59.976;30.316;2022-12-24T06:26:57;99969.19;;;-1.47;82.59
75855;BME280;64502;59.976;30.316;2022-12-24T06:29:23;99973.47;;;-1.44;82.31
75855;BME280;64502;59.976;30.316;2022-12-24T06:31:49;99982.78;;;-1.37;82.47
75855;BME280;64502;59.976;30.316;2022-12-24T06:34:14;99992.97;;;-1.29;81.97
75855;BME280;64502;59.976;30.316;2022-12-24T06:36:39;99996.38;;;-1.27;81.95
75855;BME280;64502;59.976;30.316;2022-12-24T06:39:05;100004.97;;;-1.25;81.44
75855;BME280;64502;59.976;30.316;2022-12-24T06:41:31;100022.19;;;-1.24;81.43
75855;BME280;64502;59.976;30.316;2022-12-24T06:43:56;100013.53;;;-1.23;81.73
75855;BME280;64502;59.976;30.316;2022-12-24T06:46:21;100014.38;;;-1.21;81.03
75855;BME280;64502;59.976;30.316;2022-12-24T06:48:47;100021.25;;;-1.20;81.32
75855;BME280;64502;59.976;30.316;2022-12-24T06:51:14;100017.00;;;-1.23;81.27
75855;BME280;64502;59.976;30.316;2022-12-24T06:53:41;100026.47;;;-1.23;81.92
75855;BME280;64502;59.976;30.316;2022-12-24T06:56:09;100026.56;;;-1.26;80.70
75855;BME280;64502;59.976;30.316;2022-12-24T06:58:35;100037.88;;;-1.30;81.99
75855;BME280;64502;59.976;30.316;2022-12-24T07:01:02;100040.56;;;-1.37;81.90
75855;BME280;64502;59.976;30.316;2022-12-24T07:03:29;100035.44;;;-1.38;81.99
75855;BME280;64502;59.976;30.316;2022-12-24T07:05:55;100040.63;;;-1.40;81.55
75855;BME280;64502;59.976;30.316;2022-12-24T07:08:22;100045.88;;;-1.43;81.41
75855;BME280;64502;59.976;30.316;2022-12-24T07:10:48;100050.25;;;-1.46;80.99
75855;BME280;64502;59.976;30.316;2022-12-24T07:13:14;100053.75;;;-1.49;81.26
75855;BME280;64502;59.976;30.316;2022-12-24T07:15:40;100063.25;;;-1.49;81.62
75855;BME280;64502;59.976;30.316;2022-12-24T07:18:06;100071.94;;;-1.53;81.18
75855;BME280;64502;59.976;30.316;2022-12-24T07:20:31;100082.28;;;-1.53;81.48
75855;BME280;64502;59.976;30.316;2022-12-24T07:22:57;100078.84;;;-1.54;82.11
75855;BME280;64502;59.976;30.316;2022-12-24T07:25:22;100072.84;;;-1.54;81.70
75855;BME280;64502;59.976;30.316;2022-12-24T07:27:47;100079.63;;;-1.49;81.60
75855;BME280;64502;59.976;30.316;2022-12-24T07:30:13;100093.31;;;-1.44;81.30
75855;BME280;64502;59.976;30.316;2022-12-24T07:32:38;100097.47;;;-1.35;81.25
75855;BME280;64502;59.976;30.316;2022-12-24T07:35:04;100107.69;;;-1.29;80.20
75855;BME280;64502;59.976;30.316;2022-12-24T07:37:30;100106.69;;;-1.22;80.00
75855;BME280;64502;59.976;30.316;2022-12-24T07:39:56;100109.25;;;-1.20;78.77
75855;BME280;64502;59.976;30.316;2022-12-24T07:42:21;100110.91;;;-1.16;78.67
75855;BME280;64502;59.976;30.316;2022-12-24T07:44:46;100127.16;;;-1.09;79.27
75855;BME280;64502;59.976;30.316;2022-12-24T07:47:12;100111.50;;;-1.03;79.37
75855;BME280;64502;59.976;30.316;2022-12-24T07:49:37;100112.28;;;-1.00;79.24
75855;BME280;64502;59.976;30.316;2022-12-24T07:52:03;100117.38;;;-0.95;79.24
75855;BME280;64502;59.976;30.316;2022-12-24T07:54:29;100127.69;;;-0.94;78.65
75855;BME280;64502;59.976;30.316;2022-12-24T07:56:54;100135.53;;;-0.97;78.30
75855;BME280;64502;59.976;30.316;2022-12-24T07:59:20;100146.09;;;-1.06;78.45
75855;BME280;64502;59.976;30.316;2022-12-24T08:01:46;100144.53;;;-1.15;78.74
75855;BME280;64502;59.976;30.316;2022-12-24T08:04:11;100145.47;;;-1.19;79.78
75855;BME280;64502;59.976;30.316;2022-12-24T08:06:38;100145.53;;;-1.22;78.60
75855;BME280;64502;59.976;30.316;2022-12-24T08:09:04;100146.44;;;-1.24;79.68
75855;BME280;64502;59.976;30.316;2022-12-24T08:11:29;100174.91;;;-1.24;79.43
75855;BME280;64502;59.976;30.316;2022-12-24T08:13:55;100171.59;;;-1.32;78.33
75855;BME280;64502;59.976;30.316;2022-12-24T08:16:20;100173.34;;;-1.35;78.50
75855;BME280;64502;59.976;30.316;2022-12-24T08:18:46;100173.41;;;-1.36;79.23
75855;BME280;64502;59.976;30.316;2022-12-24T08:21:12;100183.72;;;-1.35;79.10
75855;BME280;64502;59.976;30.316;2022-12-24T08:23:37;100176.84;;;-1.37;79.00
75855;BME280;64502;59.976;30.316;2022-12-24T08:26:06;100177.75;;;-1.40;79.18
75855;BME280;64502;59.976;30.316;2022-12-24T08:28:32;100176.00;;;-1.38;78.84
75855;BME280;64502;59.976;30.316;2022-12-24T08:30:58;100182.06;;;-1.39;79.02
75855;BME280;64502;59.976;30.316;2022-12-24T08:33:23;100189.84;;;-1.39;78.95
75855;BME280;64502;59.976;30.316;2022-12-24T08:35:51;100200.19;;;-1.40;78.76
75855;BME280;64502;59.976;30.316;2022-12-24T08:38:17;100198.56;;;-1.44;78.25
75855;BME280;64502;59.976;30.316;2022-12-24T08:40:43;100204.53;;;-1.41;78.00
75855;BME280;64502;59.976;30.316;2022-12-24T08:43:08;100194.19;;;-1.41;77.21
75855;BME280;64502;59.976;30.316;2022-12-24T08:45:34;100200.28;;;-1.45;78.49
75855;BME280;64502;59.976;30.316;2022-12-24T08:48:00;100209.81;;;-1.47;77.92
75855;BME280;64502;59.976;30.316;2022-12-24T08:50:25;100210.63;;;-1.45;77.62
75855;BME280;64502;59.976;30.316;2022-12-24T08:52:52;100211.41;;;-1.40;78.62
75855;BME280;64502;59.976;30.316;2022-12-24T08:55:18;100225.97;;;-1.34;78.13
75855;BME280;64502;59.976;30.316;2022-12-24T08:57:43;100212.09;;;-1.30;77.67
75855;BME280;64502;59.976;30.316;2022-12-24T09:00:11;100218.91;;;-1.24;77.40
75855;BME280;64502;59.976;30.316;2022-12-24T09:02:36;100218.00;;;-1.23;77.68
75855;BME280;64502;59.976;30.316;2022-12-24T09:05:02;100224.84;;;-1.19;77.59
75855;BME280;64502;59.976;30.316;2022-12-24T09:07:28;100222.09;;;-1.10;77.68
75855;BME280;64502;59.976;30.316;2022-12-24T09:09:53;100218.59;;;-1.07;76.82
75855;BME280;64502;59.976;30.316;2022-12-24T09:12:19;100228.09;;;-1.06;77.23
75855;BME280;64502;59.976;30.316;2022-12-24T09:14:44;100227.13;;;-1.02;77.45
75855;BME280;64502;59.976;30.316;2022-12-24T09:17:10;100234.75;;;-0.95;77.06
75855;BME280;64502;59.976;30.316;2022-12-24T09:19:35;100236.44;;;-0.92;77.09
75855;BME280;64502;59.976;30.316;2022-12-24T09:22:01;100239.00;;;-0.91;77.28
75855;BME280;64502;59.976;30.316;2022-12-24T09:24:26;100238.13;;;-0.90;76.86
75855;BME280;64502;59.976;30.316;2022-12-24T09:26:52;100240.66;;;-0.86;77.30
75855;BME280;64502;59.976;30.316;2022-12-24T09:29:17;100250.06;;;-0.82;76.71
75855;BME280;64502;59.976;30.316;2022-12-24T09:31:43;100245.78;;;-0.83;77.44
75855;BME280;64502;59.976;30.316;2022-12-24T09:34:08;100250.00;;;-0.79;77.22
75855;BME280;64502;59.976;30.316;2022-12-24T09:36:34;100256.00;;;-0.77;77.53
75855;BME280;64502;59.976;30.316;2022-12-24T09:38:59;100254.16;;;-0.71;77.27
75855;BME280;64502;59.976;30.316;2022-12-24T09:41:31;100261.75;;;-0.61;77.58
75855;BME280;64502;59.976;30.316;2022-12-24T09:44:13;100259.06;;;-0.57;76.30
75855;BME280;64502;59.976;30.316;2022-12-24T09:46:44;100268.56;;;-0.56;76.97
75855;BME280;64502;59.976;30.316;2022-12-24T09:49:18;100266.78;;;-0.54;76.46
75855;BME280;64502;59.976;30.316;2022-12-24T09:51:50;100271.91;;;-0.52;77.09
75855;BME280;64502;59.976;30.316;2022-12-24T09:54:32;100280.50;;;-0.49;76.59
75855;BME280;64502;59.976;30.316;2022-12-24T09:57:01;100283.81;;;-0.42;77.28
75855;BME280;64502;59.976;30.316;2022-12-24T09:59:41;100273.44;;;-0.42;76.56
75855;BME280;64502;59.976;30.316;2022-12-24T10:02:10;100284.78;;;-0.46;77.02
75855;BME280;64502;59.976;30.316;2022-12-24T10:04:37;100275.25;;;-0.46;76.48
75855;BME280;64502;59.976;30.316;2022-12-24T10:07:25;100291.56;;;-0.40;75.93
75855;BME280;64502;59.976;30.316;2022-12-24T10:10:03;100298.38;;;-0.36;76.89
75855;BME280;64502;59.976;30.316;2022-12-24T10:12:55;100289.69;;;-0.34;76.77
75855;BME280;64502;59.976;30.316;2022-12-24T10:15:29;100288.88;;;-0.36;76.40
75855;BME280;64502;59.976;30.316;2022-12-24T10:21:39;100295.72;;;-0.33;75.77
75855;BME280;64502;59.976;30.316;2022-12-24T10:23:51;100307.00;;;-0.36;74.46
75855;BME280;64502;59.976;30.316;2022-12-24T10:26:34;100290.66;;;-0.38;74.15
75855;BME280;64502;59.976;30.316;2022-12-24T10:29:17;100297.47;;;-0.34;74.28
75855;BME280;64502;59.976;30.316;2022-12-24T10:31:52;100325.16;;;-0.34;73.73
75855;BME280;64502;59.976;30.316;2022-12-24T10:34:23;100307.06;;;-0.37;73.91
75855;BME280;64502;59.976;30.316;2022-12-24T10:36:51;100316.53;;;-0.36;74.67
75855;BME280;64502;59.976;30.316;2022-12-24T10:39:22;100320.88;;;-0.37;74.12
75855;BME280;64502;59.976;30.316;2022-12-24T10:41:50;100322.56;;;-0.34;73.18
75855;BME280;64502;59.976;30.316;2022-12-24T10:44:19;100322.63;;;-0.39;73.48
75855;BME280;64502;59.976;30.316;2022-12-24T10:46:46;100323.53;;;-0.40;74.07
75855;BME280;64502;59.976;30.316;2022-12-24T10:49:18;100325.22;;;-0.39;74.22
75855;BME280;64502;59.976;30.316;2022-12-24T10:54:18;100335.63;;;-0.40;74.43
75855;BME280;64502;59.976;30.316;2022-12-24T10:56:49;100337.28;;;-0.36;74.77
75855;BME280;64502;59.976;30.316;2022-12-24T10:59:42;100334.66;;;-0.35;74.33
75855;BME280;64502;59.976;30.316;2022-12-24T11:02:43;100338.09;;;-0.33;74.93
75855;BME280;64502;59.976;30.316;2022-12-24T11:05:30;100350.16;;;-0.33;74.87
75855;BME280;64502;59.976;30.316;2022-12-24T11:08:05;100366.63;;;-0.34;73.86
75855;BME280;64502;59.976;30.316;2022-12-24T11:10:35;100355.47;;;-0.38;74.60
75855;BME280;64502;59.976;30.316;2022-12-24T11:15:50;100368.31;;;-0.33;75.19
75855;BME280;64502;59.976;30.316;2022-12-24T11:18:24;100366.53;;;-0.30;74.20
75855;BME280;64502;59.976;30.316;2022-12-24T11:20:51;100380.38;;;-0.31;74.31
75855;BME280;64502;59.976;30.316;2022-12-24T11:23:17;100384.75;;;-0.33;73.73
75855;BME280;64502;59.976;30.316;2022-12-24T11:25:49;100386.38;;;-0.27;74.83
75855;BME280;64502;59.976;30.316;2022-12-24T11:33:26;100413.00;;;-0.19;73.17
75855;BME280;64502;59.976;30.316;2022-12-24T11:35:55;100409.66;;;-0.26;73.30
75855;BME280;64502;59.976;30.316;2022-12-24T11:38:25;100413.09;;;-0.25;74.12
75855;BME280;64502;59.976;30.316;2022-12-24T11:41:17;100423.47;;;-0.25;73.40
75855;BME280;64502;59.976;30.316;2022-12-24T11:43:49;100436.47;;;-0.27;73.40
75855;BME280;64502;59.976;30.316;2022-12-24T11:46:18;100433.81;;;-0.24;73.35
75855;BME280;64502;59.976;30.316;2022-12-24T11:48:45;100432.13;;;-0.26;74.01
75855;BME280;64502;59.976;30.316;2022-12-24T11:51:23;100434.75;;;-0.28;73.93
75855;BME280;64502;59.976;30.316;2022-12-24T11:53:57;100433.84;;;-0.25;74.13
75855;BME280;64502;59.976;30.316;2022-12-24T11:56:32;100467.53;;;-0.24;74.23
75855;BME280;64502;59.976;30.316;2022-12-24T12:04:32;100447.69;;;-0.26;73.52
75855;BME280;64502;59.976;30.316;2022-12-24T12:07:04;100450.31;;;-0.28;73.67
75855;BME280;64502;59.976;30.316;2022-12-24T12:09:33;100490.88;;;-0.25;73.21
75855;BME280;64502;59.976;30.316;2022-12-24T12:12:14;100476.22;;;-0.28;72.83
75855;BME280;64502;59.976;30.316;2022-12-24T12:14:53;100468.44;;;-0.28;73.98
75855;BME280;64502;59.976;30.316;2022-12-24T12:17:36;100475.38;;;-0.28;72.81
75855;BME280;64502;59.976;30.316;2022-12-24T12:20:27;100490.91;;;-0.27;72.98
75855;BME280;64502;59.976;30.316;2022-12-24T12:26:04;100491.66;;;-0.20;73.98
75855;BME280;64502;59.976;30.316;2022-12-24T12:29:23;100512.44;;;-0.23;73.41
75855;BME280;64502;59.976;30.316;2022-12-24T12:34:15;100503.81;;;-0.24;73.35
75855;BME280;64502;59.976;30.316;2022-12-24T12:36:57;100515.84;;;-0.19;73.65
75855;BME280;64502;59.976;30.316;2022-12-24T12:39:25;100518.44;;;-0.19;74.23
75855;BME280;64502;59.976;30.316;2022-12-24T12:41:55;100522.66;;;-0.14;73.54
75855;BME280;64502;59.976;30.316;2022-12-24T12:47:11;100531.50;;;-0.26;74.25
75855;BME280;64502;59.976;30.316;2022-12-24T12:49:53;100525.53;;;-0.29;74.58
75855;BME280;64502;59.976;30.316;2022-12-24T12:58:34;100561.72;;;-0.23;74.93
75855;BME280;64502;59.976;30.316;2022-12-24T13:01:08;100561.72;;;-0.23;75.02
75855;BME280;64502;59.976;30.316;2022-12-24T13:12:08;100567.88;;;-0.30;74.82
75855;BME280;64502;59.976;30.316;2022-12-24T13:20:33;100591.25;;;-0.33;74.24
75855;BME280;64502;59.976;30.316;2022-12-24T13:23:10;100597.28;;;-0.30;74.64
75855;BME280;64502;59.976;30.316;2022-12-24T13:25:39;100597.22;;;-0.27;74.42
75855;BME280;64502;59.976;30.316;2022-12-24T13:30:48;100600.66;;;-0.25;74.35
75855;BME280;64502;59.976;30.316;2022-12-24T13:36:10;100598.13;;;-0.29;74.13
75855;BME280;64502;59.976;30.316;2022-12-24T13:47:15;100630.13;;;-0.32;73.73
75855;BME280;64502;59.976;30.316;2022-12-24T13:49:49;100639.59;;;-0.29;73.45
75855;BME280;64502;59.976;30.316;2022-12-24T13:52:22;100641.34;;;-0.30;73.42
75855;BME280;64502;59.976;30.316;2022-12-24T13:55:02;100644.78;;;-0.29;72.90
75855;BME280;64502;59.976;30.316;2022-12-24T14:00:50;100660.34;;;-0.29;73.52
75855;BME280;64502;59.976;30.316;2022-12-24T14:08:24;100657.84;;;-0.35;73.09
75855;BME280;64502;59.976;30.316;2022-12-24T14:18:47;100673.44;;;-0.40;73.22
75855;BME280;64502;59.976;30.316;2022-12-24T14:21:25;100698.44;;;-0.34;73.58
75855;BME280;64502;59.976;30.316;2022-12-24T14:23:56;100692.41;;;-0.36;73.42
75855;BME280;64502;59.976;30.316;2022-12-24T14:26:24;100694.13;;;-0.35;74.33
75855;BME280;64502;59.976;30.316;2022-12-24T14:28:53;100699.28;;;-0.32;74.74
75855;BME280;64502;59.976;30.316;2022-12-24T14:31:20;100708.78;;;-0.33;74.18
75855;BME280;64502;59.976;30.316;2022-12-24T14:33:46;100709.59;;;-0.31;74.67
75855;BME280;64502;59.976;30.316;2022-12-24T14:36:14;100707.06;;;-0.32;73.95
75855;BME280;64502;59.976;30.316;2022-12-24T14:38:42;100708.75;;;-0.31;74.46